Aéroport int. de Victoria, Colombie-Britannique

Conditions des dernières 24 heures

Ce tableau est un sommaire des conditions météo couvrant les dernières 24 heures. Ce sommaire inclut les paramètres suivants: température, humidité, point de rosée, direction et vitesse du vent, pression barométrique, facteur de refroidissement éolien ou indice humidex.
Date / Heure
(HAP)
Conditions Temp (°F) Humidite (%) Point de rose (°F) Vent (mph) Pression (pouces) Vis (mi) Humidex
31 juillet 2014
8:00 Généralement ensoleillé 64 70 54 O 4 30.2 30 *
7:00 Généralement ensoleillé 59 83 54 O 4 30.1 30 *
6:00 Généralement ensoleillé 55   85 51 calme 30.1 30 *
5:00 Généralement dégagé 56 85 52 ENE 2 30.1 30 *
4:00 Dégagé 56 85 52 calme 30.1 30 *
3:00 Dégagé 56 83 51 calme 30.1 30 *
2:00 Généralement dégagé 60 76 52 ESE 3 30.1 30 *
1:00 Dégagé 60 74 52 SSO 4 30.1 30 *
0:00 Dégagé 61 75 53 NNE 4 30.1 30 *
30 juillet 2014
23:00 Dégagé 63 71 53 N 2 30.1 30 *
22:00 Généralement dégagé 64 68 54 calme 30.1 30 *
21:00 Généralement dégagé 66 61 52 ESE 2 30.1 30 *
20:00 Généralement ensoleillé 70 56 53 E 4 30.1 30 *
19:00 Généralement ensoleillé 70 53 53 E 6 30.1 30 *
18:00 Généralement ensoleillé 71 51 52 ESE 7 30.1 30 *
17:00 Généralement ensoleillé 71 53 53 ESE 11 30.1 30 *
16:00 Généralement ensoleillé 72 58 57 ESE 10 30.1 30 77
15:00 Généralement ensoleillé 75   56 58 ESE 7 30.1 30 81
14:00 Généralement ensoleillé 73 60 59 ESE 7 30.2 30 80
13:00 Généralement ensoleillé 74 58 58 ESE 8 30.2 30 81
12:00 Généralement ensoleillé 70 66 58 ESE 7 30.2 30 76
11:00 Ensoleillé 70 64 58 ENE 6 30.2 30 76
10:00 Ensoleillé 66 66 55 ESE 6 30.2 30 *
9:00 Ensoleillé 64 70 55 E 2 30.2 30 *
8:00 Partiellement nuageux 62 76 54 N 2 30.2 30 *
N.D.
non disponible
 ↑ 
température la plus haute
 ↓ 
température la plus basse
*
Valeur non significative.

Si vous désirez plus de données historiques sur les conditions météo, s.v.p. visitez Données climatologiques en ligne.